createdAt,value
2019-03-20T00:00:18.005Z,56.00
2019-03-20T00:02:48.365Z,56.40
2019-03-20T00:05:16.473Z,56.60
2019-03-20T00:07:44.778Z,57.00
2019-03-20T00:10:12.951Z,57.10
2019-03-20T00:12:41.268Z,57.00
2019-03-20T00:15:10.550Z,57.10
2019-03-20T00:17:38.828Z,57.90
2019-03-20T00:20:08.396Z,57.70
2019-03-20T00:22:36.485Z,58.40
2019-03-20T00:25:04.685Z,58.60
2019-03-20T00:27:33.838Z,58.80
2019-03-20T00:30:01.880Z,59.30
2019-03-20T00:32:30.580Z,59.10
2019-03-20T00:35:01.322Z,59.70
2019-03-20T00:37:29.264Z,59.70
2019-03-20T00:39:59.292Z,59.70
2019-03-20T00:42:27.518Z,59.70
2019-03-20T00:44:56.240Z,60.00
2019-03-20T00:47:24.403Z,59.30
2019-03-20T00:49:52.711Z,59.40
2019-03-20T00:52:20.806Z,59.40
2019-03-20T00:54:49.201Z,58.60
2019-03-20T00:57:17.664Z,58.50
2019-03-20T00:59:45.625Z,58.90
2019-03-20T01:02:13.612Z,58.80
2019-03-20T01:04:41.600Z,58.20
2019-03-20T01:07:10.276Z,58.30
2019-03-20T01:09:38.356Z,57.70
2019-03-20T01:12:06.590Z,58.00
2019-03-20T01:14:34.860Z,57.10
2019-03-20T01:17:03.042Z,57.70
2019-03-20T01:19:30.998Z,58.00
2019-03-20T01:21:59.259Z,57.50
2019-03-20T01:24:27.594Z,57.00
2019-03-20T01:26:55.641Z,57.50
2019-03-20T01:29:25.220Z,56.90
2019-03-20T01:31:53.250Z,56.80
2019-03-20T01:34:24.238Z,57.30
2019-03-20T01:36:58.352Z,57.80
2019-03-20T01:41:55.200Z,58.50
2019-03-20T01:46:51.477Z,58.40
2019-03-20T01:49:19.526Z,58.80
2019-03-20T01:51:47.859Z,59.10
2019-03-20T01:54:16.169Z,59.10
2019-03-20T01:56:44.691Z,59.30
2019-03-20T01:59:12.691Z,59.20
2019-03-20T02:01:41.584Z,59.20
2019-03-20T02:04:09.636Z,59.50
2019-03-20T02:06:37.604Z,59.60
2019-03-20T02:09:06.701Z,59.30
2019-03-20T02:11:34.671Z,59.70
2019-03-20T02:14:04.810Z,59.90
2019-03-20T02:16:35.099Z,60.70
2019-03-20T02:19:03.232Z,61.80
2019-03-20T02:21:31.204Z,62.10
2019-03-20T02:23:59.159Z,61.80
2019-03-20T02:26:27.288Z,61.80
2019-03-20T02:28:55.387Z,62.10
2019-03-20T02:31:23.380Z,61.90
2019-03-20T02:33:51.317Z,62.30
2019-03-20T02:38:48.985Z,60.90
2019-03-20T02:41:16.906Z,61.70
2019-03-20T02:43:45.195Z,63.00
2019-03-20T02:46:13.399Z,64.00
2019-03-20T02:48:41.346Z,63.10
2019-03-20T02:51:09.622Z,63.80
2019-03-20T02:53:53.533Z,63.00
2019-03-20T02:56:21.544Z,63.30
2019-03-20T02:58:49.567Z,63.70
2019-03-20T03:01:39.379Z,63.60
2019-03-20T03:04:08.660Z,64.10
2019-03-20T03:06:36.832Z,65.20
2019-03-20T03:09:07.356Z,65.20
2019-03-20T03:11:35.346Z,65.40
2019-03-20T03:14:03.335Z,65.70
2019-03-20T03:16:31.849Z,66.10
2019-03-20T03:18:59.842Z,66.20
2019-03-20T03:21:28.131Z,66.70
2019-03-20T03:23:56.350Z,66.30
2019-03-20T03:26:24.694Z,65.80
2019-03-20T03:28:52.785Z,64.90
2019-03-20T03:31:21.137Z,63.80
2019-03-20T03:33:49.076Z,64.40
2019-03-20T03:36:21.510Z,64.10
2019-03-20T03:38:47.383Z,64.10
2019-03-20T03:41:15.302Z,64.20
2019-03-20T03:43:43.266Z,64.50
2019-03-20T03:46:12.056Z,64.70
2019-03-20T03:49:04.506Z,65.10
2019-03-20T03:51:54.249Z,64.50
2019-03-20T03:54:22.316Z,63.70
2019-03-20T03:56:50.230Z,64.70
2019-03-20T03:59:25.030Z,63.90
2019-03-20T04:01:56.925Z,63.60
2019-03-20T04:04:26.837Z,64.60
2019-03-20T04:06:56.743Z,64.70
2019-03-20T04:09:25.628Z,65.50
2019-03-20T04:11:53.657Z,66.00
2019-03-20T04:16:49.848Z,66.70
2019-03-20T04:19:18.267Z,65.80
2019-03-20T04:21:46.269Z,65.80
2019-03-20T04:24:14.410Z,65.80
2019-03-20T04:29:10.568Z,65.20
2019-03-20T04:31:39.672Z,65.80
2019-03-20T04:34:08.198Z,65.30
2019-03-20T04:36:47.241Z,66.10
2019-03-20T04:39:07.659Z,66.70
2019-03-20T04:41:35.642Z,66.50
2019-03-20T04:44:04.999Z,66.80
2019-03-20T04:46:34.205Z,66.70
2019-03-20T04:49:02.262Z,66.70
2019-03-20T04:51:30.394Z,66.20
2019-03-20T04:54:06.298Z,67.00
2019-03-20T04:56:48.439Z,67.30
2019-03-20T04:59:13.951Z,67.10
2019-03-20T05:01:43.008Z,66.90
2019-03-20T05:04:13.540Z,65.00
2019-03-20T05:06:57.982Z,65.60
2019-03-20T05:09:17.940Z,66.50
2019-03-20T05:11:46.034Z,67.50
2019-03-20T05:14:14.425Z,68.60
2019-03-20T05:16:42.701Z,68.50
2019-03-20T05:19:10.803Z,68.70
2019-03-20T05:21:38.720Z,69.30
2019-03-20T05:24:06.750Z,69.50
2019-03-20T05:26:34.742Z,69.90
2019-03-20T05:29:02.790Z,69.10
2019-03-20T05:31:31.080Z,69.10
2019-03-20T05:34:00.129Z,69.60
2019-03-20T05:36:28.468Z,67.20
2019-03-20T05:38:56.718Z,67.70
2019-03-20T05:41:24.742Z,67.60
2019-03-20T05:43:53.003Z,67.90
2019-03-20T05:46:21.016Z,66.90
2019-03-20T05:48:48.995Z,66.90
2019-03-20T05:51:17.104Z,68.30
2019-03-20T05:53:45.075Z,67.60
2019-03-20T05:56:13.113Z,68.20
2019-03-20T05:58:41.404Z,68.60
2019-03-20T06:01:09.479Z,68.80
2019-03-20T06:03:37.654Z,69.50
2019-03-20T06:06:05.802Z,69.50
2019-03-20T06:08:34.103Z,69.60
2019-03-20T06:11:02.095Z,68.80
2019-03-20T06:13:30.074Z,68.60
2019-03-20T06:15:58.343Z,68.30
2019-03-20T06:18:26.281Z,67.10
2019-03-20T06:20:54.340Z,66.50
2019-03-20T06:23:22.326Z,66.80
2019-03-20T06:25:51.626Z,66.30
2019-03-20T06:28:20.932Z,64.10
2019-03-20T06:30:49.239Z,64.00
2019-03-20T06:33:17.412Z,64.00
2019-03-20T06:35:45.555Z,64.00
2019-03-20T06:38:13.690Z,64.00
2019-03-20T06:40:41.802Z,63.40
2019-03-20T06:43:09.741Z,64.00
2019-03-20T06:45:38.112Z,63.70
2019-03-20T06:48:06.281Z,64.10
2019-03-20T06:50:34.607Z,63.10
2019-03-20T06:53:02.596Z,62.20
2019-03-20T06:55:30.701Z,62.20
2019-03-20T06:57:58.646Z,63.20
2019-03-20T07:01:04.529Z,61.60
2019-03-20T07:04:11.424Z,61.40
2019-03-20T07:07:43.505Z,61.30
2019-03-20T07:10:40.406Z,60.60
2019-03-20T07:13:08.555Z,59.40
2019-03-20T07:15:36.735Z,58.80
2019-03-20T07:18:05.018Z,59.20
2019-03-20T07:20:33.034Z,59.30
2019-03-20T07:23:01.064Z,59.40
2019-03-20T07:25:29.155Z,58.80
2019-03-20T07:27:57.194Z,59.40
2019-03-20T07:30:25.178Z,57.70
2019-03-20T07:32:54.088Z,58.20
2019-03-20T07:35:22.409Z,57.00
2019-03-20T07:37:55.819Z,56.80
2019-03-20T07:40:20.338Z,56.20
2019-03-20T07:42:48.332Z,56.60
2019-03-20T07:45:17.454Z,56.70
2019-03-20T07:47:45.456Z,56.60
2019-03-20T07:50:15.254Z,56.40
2019-03-20T07:52:43.325Z,55.80
2019-03-20T07:55:11.950Z,54.70
2019-03-20T07:57:40.208Z,54.70
2019-03-20T08:00:11.621Z,55.20
2019-03-20T08:02:39.668Z,55.00
2019-03-20T08:05:09.571Z,53.30
2019-03-20T08:07:37.664Z,53.50
2019-03-20T08:10:09.489Z,54.20
2019-03-20T08:12:38.026Z,51.80
2019-03-20T08:15:09.369Z,51.50
2019-03-20T08:17:37.856Z,51.60
2019-03-20T08:20:08.857Z,51.20
2019-03-20T08:22:37.120Z,51.00
2019-03-20T08:27:33.601Z,51.00
2019-03-20T08:30:02.536Z,51.70
2019-03-20T08:32:32.099Z,51.00
2019-03-20T08:35:00.332Z,50.40
2019-03-20T08:37:28.930Z,51.10
2019-03-20T08:39:56.993Z,50.00
2019-03-20T08:42:25.153Z,49.50
2019-03-20T08:44:53.197Z,49.30
2019-03-20T08:47:21.293Z,46.90
2019-03-20T08:49:49.264Z,47.50
2019-03-20T08:52:17.318Z,46.00
2019-03-20T08:54:45.327Z,45.70
2019-03-20T08:57:13.424Z,44.10
2019-03-20T08:59:41.533Z,44.70
2019-03-20T09:02:09.668Z,44.50
2019-03-20T09:04:40.105Z,40.90
2019-03-20T09:07:08.651Z,41.30
2019-03-20T09:09:36.991Z,40.30
2019-03-20T09:12:05.067Z,40.60
2019-03-20T09:14:33.320Z,39.70
2019-03-20T09:17:01.349Z,39.00
2019-03-20T09:19:29.430Z,37.30
2019-03-20T09:21:57.543Z,37.50
2019-03-20T09:24:25.653Z,37.50
2019-03-20T09:26:54.252Z,38.10
2019-03-20T09:29:24.211Z,38.00
2019-03-20T09:31:52.302Z,38.20
2019-03-20T09:34:20.383Z,37.30
2019-03-20T09:36:48.392Z,36.60
2019-03-20T09:39:16.545Z,36.90
2019-03-20T09:41:44.822Z,35.00
2019-03-20T09:44:12.785Z,35.20
2019-03-20T09:46:40.866Z,33.90
2019-03-20T09:49:10.121Z,33.30
2019-03-20T09:51:40.424Z,33.00
2019-03-20T09:54:08.606Z,33.10
2019-03-20T09:56:36.670Z,32.60
2019-03-20T09:59:05.175Z,32.40
2019-03-20T10:01:33.494Z,32.20
2019-03-20T10:04:01.528Z,32.80
2019-03-20T10:06:30.288Z,32.40
2019-03-20T10:08:58.894Z,32.80
2019-03-20T10:11:26.871Z,31.70
2019-03-20T10:13:55.226Z,31.80
2019-03-20T10:16:23.643Z,30.40
2019-03-20T10:18:51.952Z,30.80
2019-03-20T10:21:19.973Z,31.00
2019-03-20T10:23:48.314Z,30.00
2019-03-20T10:26:16.554Z,29.40
2019-03-20T10:28:44.593Z,30.40
2019-03-20T10:31:12.585Z,28.90
2019-03-20T10:33:40.601Z,28.50
2019-03-20T10:36:13.029Z,29.00
2019-03-20T10:38:41.293Z,28.10
2019-03-20T10:41:09.372Z,27.40
2019-03-20T10:43:38.714Z,28.00
2019-03-20T10:46:07.390Z,27.40
2019-03-20T10:48:35.418Z,28.90
2019-03-20T10:51:03.516Z,27.20
2019-03-20T10:53:31.904Z,27.60
2019-03-20T10:56:02.146Z,28.00
2019-03-20T10:58:32.127Z,26.50
2019-03-20T11:01:00.743Z,27.00
2019-03-20T11:03:29.116Z,27.80
2019-03-20T11:05:57.256Z,26.90
2019-03-20T11:08:25.340Z,26.70
2019-03-20T11:10:53.348Z,25.20
2019-03-20T11:13:21.720Z,24.90
2019-03-20T11:15:49.725Z,23.70
2019-03-20T11:18:17.795Z,24.30
2019-03-20T11:20:45.754Z,24.50
2019-03-20T11:23:14.409Z,24.20
2019-03-20T11:25:42.448Z,24.80
2019-03-20T11:28:10.560Z,22.60
2019-03-20T11:30:38.584Z,23.00
2019-03-20T11:33:06.698Z,23.10
2019-03-20T11:35:34.821Z,23.40
2019-03-20T11:38:02.820Z,23.20
2019-03-20T11:40:31.070Z,24.00
2019-03-20T11:42:59.069Z,23.70
2019-03-20T11:45:27.273Z,23.30
2019-03-20T11:47:55.571Z,23.70
2019-03-20T11:50:36.854Z,23.40
2019-03-20T11:53:05.312Z,23.50
2019-03-20T11:55:33.472Z,23.50
2019-03-20T11:58:02.190Z,23.30
2019-03-20T12:00:30.396Z,22.80
2019-03-20T12:02:58.629Z,23.30
2019-03-20T12:05:26.652Z,23.20
2019-03-20T12:07:54.650Z,22.70
2019-03-20T12:10:22.688Z,23.20
2019-03-20T12:12:51.025Z,23.50
2019-03-20T12:15:19.011Z,23.60
2019-03-20T12:17:47.164Z,23.30
2019-03-20T12:20:17.096Z,24.00
2019-03-20T12:22:53.880Z,23.90
2019-03-20T12:25:26.158Z,23.10
2019-03-20T12:27:54.193Z,24.00
2019-03-20T12:30:24.760Z,24.30
2019-03-20T12:32:52.901Z,23.30
2019-03-20T12:35:23.045Z,23.40
2019-03-20T12:37:52.449Z,23.40
2019-03-20T12:40:23.057Z,24.10
2019-03-20T12:42:51.368Z,24.30
2019-03-20T12:45:21.718Z,23.90
2019-03-20T12:47:49.797Z,24.20
2019-03-20T12:50:18.072Z,24.20
2019-03-20T12:52:46.109Z,23.90
2019-03-20T12:55:15.456Z,24.10
2019-03-20T12:57:43.688Z,23.90
2019-03-20T13:00:15.391Z,23.40
2019-03-20T13:02:43.799Z,23.50
2019-03-20T13:05:12.259Z,23.70
2019-03-20T13:07:40.347Z,23.40
2019-03-20T13:10:10.898Z,22.90
2019-03-20T13:12:38.884Z,22.10
2019-03-20T13:15:09.942Z,22.90
2019-03-20T13:17:38.141Z,22.00
2019-03-20T13:20:07.546Z,22.40
2019-03-20T13:22:35.921Z,21.80
2019-03-20T13:25:05.102Z,22.10
2019-03-20T13:27:34.009Z,21.10
2019-03-20T13:30:02.190Z,20.70
2019-03-20T13:32:31.614Z,21.00
2019-03-20T13:34:59.940Z,21.10
2019-03-20T13:37:29.228Z,21.50
2019-03-20T13:39:57.632Z,21.20
2019-03-20T13:42:25.640Z,20.10
2019-03-20T13:44:54.799Z,19.60
2019-03-20T13:47:23.517Z,18.00
2019-03-20T13:49:58.644Z,18.60
2019-03-20T13:52:26.716Z,17.60
2019-03-20T13:54:54.732Z,16.50
2019-03-20T13:57:22.694Z,14.70
2019-03-20T13:59:50.862Z,14.70
2019-03-20T14:02:19.280Z,14.30
2019-03-20T14:04:47.592Z,14.60
2019-03-20T14:07:15.667Z,12.60
2019-03-20T14:09:43.845Z,11.60
2019-03-20T14:12:11.913Z,12.40
2019-03-20T14:14:40.020Z,11.80
2019-03-20T14:17:08.843Z,11.60
2019-03-20T14:19:37.014Z,11.10
2019-03-20T14:22:05.765Z,11.70
2019-03-20T14:24:35.999Z,11.40
2019-03-20T14:27:03.751Z,11.80
2019-03-20T14:29:31.971Z,9.70
2019-03-20T14:31:59.938Z,10.30
2019-03-20T14:34:28.052Z,11.70
2019-03-20T14:36:56.074Z,11.00
2019-03-20T14:39:24.328Z,11.90
2019-03-20T14:41:52.872Z,12.30
2019-03-20T14:44:21.075Z,11.90
2019-03-20T14:46:51.959Z,12.00
2019-03-20T14:49:20.253Z,10.70
2019-03-20T14:51:48.668Z,11.10
2019-03-20T14:54:16.638Z,11.40
2019-03-20T14:56:44.637Z,11.10
2019-03-20T14:59:12.643Z,12.10
2019-03-20T15:01:40.661Z,11.50
2019-03-20T15:04:08.940Z,12.10
2019-03-20T15:06:36.979Z,12.50
2019-03-20T15:09:07.783Z,11.20
2019-03-20T15:11:35.787Z,10.70
2019-03-20T15:14:04.941Z,11.40
2019-03-20T15:16:33.257Z,11.60
2019-03-20T15:19:01.261Z,12.00
2019-03-20T15:21:29.561Z,12.00
2019-03-20T15:23:57.788Z,11.00
2019-03-20T15:26:26.045Z,12.20
2019-03-20T15:28:54.063Z,12.70
2019-03-20T15:31:22.188Z,12.20
2019-03-20T15:33:50.586Z,13.30
2019-03-20T15:36:18.613Z,13.70
2019-03-20T15:38:46.883Z,13.30
2019-03-20T15:41:14.876Z,12.00
2019-03-20T15:43:42.820Z,12.70
2019-03-20T15:46:10.953Z,13.20
2019-03-20T15:48:39.198Z,13.60
2019-03-20T15:51:07.289Z,13.80
2019-03-20T15:53:35.424Z,13.80
2019-03-20T15:56:03.568Z,14.10
2019-03-20T15:58:31.606Z,13.60
2019-03-20T16:00:59.621Z,13.70
2019-03-20T16:03:29.522Z,13.10
2019-03-20T16:05:57.910Z,13.20
2019-03-20T16:08:26.371Z,13.60
2019-03-20T16:10:54.388Z,13.10
2019-03-20T16:13:22.358Z,13.80
2019-03-20T16:15:50.533Z,13.90
2019-03-20T16:18:18.712Z,14.00
2019-03-20T16:20:46.758Z,13.60
2019-03-20T16:23:15.271Z,13.90
2019-03-20T16:25:43.763Z,15.10
2019-03-20T16:28:12.098Z,15.00
2019-03-20T16:30:40.574Z,15.00
2019-03-20T16:33:09.101Z,15.30
2019-03-20T16:35:37.275Z,15.40
2019-03-20T16:38:07.060Z,15.80
2019-03-20T16:40:35.330Z,16.50
2019-03-20T16:43:03.323Z,17.00
2019-03-20T16:45:31.312Z,18.10
2019-03-20T16:47:59.335Z,18.60
2019-03-20T16:50:27.393Z,18.50
2019-03-20T16:52:55.503Z,18.10
2019-03-20T16:55:23.589Z,18.80
2019-03-20T16:57:55.069Z,19.10
2019-03-20T17:00:26.376Z,19.90
2019-03-20T17:02:54.620Z,20.90
2019-03-20T17:05:22.812Z,21.10
2019-03-20T17:07:50.809Z,21.70
2019-03-20T17:10:31.245Z,22.20
2019-03-20T17:12:59.828Z,22.50
2019-03-20T17:15:30.092Z,23.30
2019-03-20T17:17:58.066Z,23.80
2019-03-20T17:20:26.139Z,24.50
2019-03-20T17:22:54.564Z,24.70
2019-03-20T17:25:22.767Z,25.00
2019-03-20T17:27:50.852Z,26.10
2019-03-20T17:30:25.327Z,26.00
2019-03-20T17:32:53.481Z,26.10
2019-03-20T17:35:21.837Z,26.10
2019-03-20T17:37:54.476Z,26.10
2019-03-20T17:40:22.824Z,26.30
2019-03-20T17:42:51.302Z,26.90
2019-03-20T17:45:20.050Z,27.50
2019-03-20T17:47:49.027Z,27.10
2019-03-20T17:50:26.176Z,27.40
2019-03-20T17:52:54.327Z,27.50
2019-03-20T17:55:22.774Z,28.50
2019-03-20T17:57:52.696Z,28.50
2019-03-20T18:00:35.745Z,28.70
2019-03-20T18:03:04.681Z,28.60
2019-03-20T18:05:33.183Z,28.80
2019-03-20T18:08:01.900Z,28.80
2019-03-20T18:10:35.586Z,29.00
2019-03-20T18:13:06.215Z,28.70
2019-03-20T18:15:35.054Z,29.00
2019-03-20T18:18:06.309Z,29.30
2019-03-20T18:20:38.314Z,29.90
2019-03-20T18:23:08.184Z,29.50
2019-03-20T18:25:39.404Z,29.40
2019-03-20T18:28:08.214Z,30.00
2019-03-20T18:30:40.009Z,29.70
2019-03-20T18:33:12.352Z,30.00
2019-03-20T18:35:41.810Z,30.30
2019-03-20T18:38:09.813Z,30.40
2019-03-20T18:40:37.893Z,30.20
2019-03-20T18:43:06.501Z,30.60
2019-03-20T18:45:34.498Z,30.80
2019-03-20T18:48:02.744Z,31.20
2019-03-20T18:50:30.935Z,31.60
2019-03-20T18:52:58.902Z,32.00
2019-03-20T18:55:27.238Z,32.50
2019-03-20T18:57:55.761Z,32.60
2019-03-20T19:00:24.655Z,33.70
2019-03-20T19:02:53.928Z,33.10
2019-03-20T19:06:02.625Z,33.10
2019-03-20T19:08:31.095Z,33.30
2019-03-20T19:10:59.358Z,34.80
2019-03-20T19:13:27.716Z,33.60
2019-03-20T19:15:56.227Z,34.40
2019-03-20T19:18:24.569Z,35.40
2019-03-20T19:20:52.849Z,35.20
2019-03-20T19:23:21.270Z,36.10
2019-03-20T19:25:49.468Z,34.80
2019-03-20T19:28:17.469Z,35.30
2019-03-20T19:30:45.563Z,37.00
2019-03-20T19:33:13.650Z,36.50
2019-03-20T19:35:42.979Z,36.70
2019-03-20T19:38:11.050Z,36.10
2019-03-20T19:40:39.531Z,36.40
2019-03-20T19:43:07.701Z,35.60
2019-03-20T19:45:35.742Z,35.50
2019-03-20T19:48:03.896Z,36.40
2019-03-20T19:50:31.921Z,34.20
2019-03-20T19:53:00.118Z,34.70
2019-03-20T19:55:28.549Z,34.30
2019-03-20T20:00:24.847Z,35.10
2019-03-20T20:02:52.994Z,37.50
2019-03-20T20:05:21.041Z,36.80
2019-03-20T20:07:49.105Z,37.10
2019-03-20T20:10:17.273Z,37.70
2019-03-20T20:12:45.361Z,38.20
2019-03-20T20:15:16.820Z,37.50
2019-03-20T20:17:47.052Z,38.00
2019-03-20T20:20:17.599Z,39.40
2019-03-20T20:22:46.084Z,38.80
2019-03-20T20:25:14.274Z,39.50
2019-03-20T20:27:42.653Z,39.70
2019-03-20T20:30:14.147Z,40.70
2019-03-20T20:32:42.339Z,40.50
2019-03-20T20:35:11.295Z,40.10
2019-03-20T20:37:39.628Z,40.50
2019-03-20T20:40:10.452Z,40.60
2019-03-20T20:42:43.265Z,40.80
2019-03-20T20:45:11.440Z,41.10
2019-03-20T20:47:39.770Z,41.00
2019-03-20T20:50:08.297Z,41.40
2019-03-20T20:52:36.282Z,41.60
2019-03-20T20:55:05.570Z,42.50
2019-03-20T20:57:33.670Z,42.00
2019-03-20T21:00:02.005Z,42.50
2019-03-20T21:02:30.132Z,43.50
2019-03-20T21:04:58.665Z,43.70
2019-03-20T21:07:26.728Z,43.70
2019-03-20T21:09:55.494Z,44.20
2019-03-20T21:12:23.540Z,44.20
2019-03-20T21:14:51.949Z,45.10
2019-03-20T21:17:41.476Z,45.10
2019-03-20T21:20:10.313Z,45.00
2019-03-20T21:23:49.657Z,44.80
2019-03-20T21:26:19.469Z,45.40
2019-03-20T21:29:47.722Z,45.30
2019-03-20T21:32:32.965Z,46.00
2019-03-20T21:36:12.498Z,46.80
2019-03-20T21:38:41.963Z,46.80
2019-03-20T21:42:30.052Z,46.40
2019-03-20T21:45:32.831Z,45.80
2019-03-20T21:48:01.838Z,45.70
2019-03-20T21:51:14.343Z,46.10
2019-03-20T21:54:43.882Z,45.50
2019-03-20T21:58:00.493Z,45.50
2019-03-20T22:01:35.532Z,46.60
2019-03-20T22:04:04.455Z,47.20
2019-03-20T22:07:04.675Z,47.10
2019-03-20T22:10:31.870Z,47.80
2019-03-20T22:13:34.761Z,48.10
2019-03-20T22:17:03.192Z,45.40
2019-03-20T22:20:39.052Z,46.40
2019-03-20T22:24:00.853Z,46.40
2019-03-20T22:27:35.935Z,46.80
2019-03-20T22:30:06.053Z,46.80
2019-03-20T22:33:30.388Z,47.30
2019-03-20T22:36:11.582Z,48.00
2019-03-20T22:39:45.970Z,49.20
2019-03-20T22:42:34.149Z,49.80
2019-03-20T22:46:23.792Z,48.60
2019-03-20T22:49:46.851Z,49.50
2019-03-20T22:52:50.359Z,48.80
2019-03-20T22:55:57.481Z,49.40
2019-03-20T22:58:45.010Z,49.40
2019-03-20T23:01:19.492Z,49.90
2019-03-20T23:04:02.059Z,50.00
2019-03-20T23:06:31.207Z,51.10
2019-03-20T23:09:00.250Z,50.50
2019-03-20T23:11:29.222Z,50.10
2019-03-20T23:13:58.024Z,50.90
2019-03-20T23:16:27.942Z,51.30
2019-03-20T23:18:57.239Z,51.10
2019-03-20T23:21:26.027Z,51.30
2019-03-20T23:23:54.800Z,51.10
2019-03-20T23:26:24.133Z,51.90
2019-03-20T23:28:53.620Z,51.60
2019-03-20T23:31:22.526Z,52.00
2019-03-20T23:33:52.056Z,51.70
2019-03-20T23:36:20.933Z,52.10
2019-03-20T23:38:50.926Z,51.50
2019-03-20T23:41:20.837Z,53.00
2019-03-20T23:43:53.216Z,52.60
2019-03-20T23:46:20.556Z,52.60
2019-03-20T23:48:58.111Z,53.20
2019-03-20T23:51:27.360Z,53.10
2019-03-20T23:53:57.810Z,52.90
2019-03-20T23:56:29.452Z,53.50
2019-03-20T23:58:59.251Z,53.40
